Time;durP1;ratioP1;P1;durP2;ratioP2;P2;SDS_P1;SDS_P2;PMS_P1;PMS_P2;Temp;Humidity;BMP_temperature;BMP_pressure;BME280_temperature;BME280_humidity;BME280_pressure;Samples;Min_cycle;Max_cycle;Signal;HPM_P1;HPM_P2
2022/09/18 00:00:43;;;;;;;7.20;3.27;;;7.70;99.90;;;;;;5123916;28;20245;-76
2022/09/18 00:03:10;;;;;;;5.60;3.00;;;7.70;99.90;;;;;;5122030;28;20207;-75
2022/09/18 00:05:38;;;;;;;7.80;3.83;;;7.70;99.90;;;;;;5122063;28;20195;-76
2022/09/18 00:08:06;;;;;;;6.17;3.50;;;7.70;99.90;;;;;;5115993;28;20200;-75
2022/09/18 00:10:39;;;;;;;7.53;3.63;;;7.70;99.90;;;;;;5114104;28;20298;-75
2022/09/18 00:13:05;;;;;;;5.90;3.50;;;7.70;99.90;;;;;;5114146;28;20281;-75
2022/09/18 00:15:32;;;;;;;4.27;3.53;;;7.80;99.90;;;;;;5114679;28;20225;-75
2022/09/18 00:17:59;;;;;;;9.47;3.40;;;7.80;99.90;;;;;;5114167;28;20196;-75
2022/09/18 00:20:25;;;;;;;6.93;3.00;;;7.80;99.90;;;;;;5121729;28;20192;-75
2022/09/18 00:22:52;;;;;;;8.60;4.30;;;7.90;99.90;;;;;;5122744;28;20203;-74
2022/09/18 00:25:18;;;;;;;5.90;3.50;;;7.90;99.90;;;;;;5121992;28;20199;-73
2022/09/18 00:27:46;;;;;;;5.10;4.47;;;7.80;99.90;;;;;;5114056;28;20195;-73
2022/09/18 00:30:13;;;;;;;6.60;4.40;;;7.70;99.90;;;;;;5112867;28;20268;-73
2022/09/18 00:32:40;;;;;;;7.10;4.53;;;7.70;99.90;;;;;;5113242;28;20276;-73
2022/09/18 00:35:07;;;;;;;11.67;5.50;;;7.70;99.90;;;;;;5113903;28;20195;-74
2022/09/18 00:37:34;;;;;;;10.90;5.40;;;7.70;99.90;;;;;;5115613;28;20200;-74
2022/09/18 00:40:01;;;;;;;7.87;5.40;;;7.60;99.90;;;;;;5113630;28;20266;-74
2022/09/18 00:42:28;;;;;;;9.00;6.23;;;7.70;99.90;;;;;;5113242;28;20261;-73
2022/09/18 00:44:56;;;;;;;7.37;6.00;;;7.60;99.90;;;;;;5115687;28;20272;-74
2022/09/18 00:47:29;;;;;;;11.97;5.93;;;7.70;99.90;;;;;;5116695;28;20225;-73
2022/09/18 00:50:02;;;;;;;8.83;6.10;;;7.70;99.90;;;;;;5116823;28;20246;-73
2022/09/18 00:52:36;;;;;;;9.10;5.57;;;7.70;99.90;;;;;;5116631;28;20216;-74
2022/09/18 00:55:07;;;;;;;11.43;5.80;;;7.80;99.90;;;;;;5116586;28;20200;-74
2022/09/18 00:57:39;;;;;;;9.93;5.97;;;7.70;99.90;;;;;;5116298;28;20227;-74
2022/09/18 01:00:10;;;;;;;8.37;5.90;;;7.80;99.90;;;;;;5116456;28;20227;-73
2022/09/18 01:02:39;;;;;;;8.13;5.57;;;7.80;99.90;;;;;;5116445;28;20288;-73
2022/09/18 01:05:07;;;;;;;9.30;5.87;;;7.80;99.90;;;;;;5116797;28;20218;-73
2022/09/18 01:07:49;;;;;;;11.23;6.43;;;7.90;99.90;;;;;;5116354;28;20651;-72
2022/09/18 01:10:27;;;;;;;9.87;5.80;;;7.90;99.90;;;;;;5116415;28;20192;-73
2022/09/18 01:12:58;;;;;;;14.83;6.40;;;7.80;99.90;;;;;;5116149;28;20284;-72
2022/09/18 01:15:33;;;;;;;8.80;5.53;;;7.80;99.90;;;;;;5115942;28;20238;-73
2022/09/18 01:18:06;;;;;;;11.20;6.20;;;7.80;99.90;;;;;;5116156;28;20544;-71
2022/09/18 01:20:49;;;;;;;10.07;6.17;;;7.80;99.90;;;;;;5116801;28;20206;-72
2022/09/18 01:23:47;;;;;;;13.23;6.73;;;7.80;99.90;;;;;;5115987;28;20204;-71
2022/09/18 01:26:29;;;;;;;10.80;6.13;;;7.80;99.90;;;;;;5082192;28;20643;-72
2022/09/18 01:29:04;;;;;;;7.33;6.23;;;7.90;99.90;;;;;;5116019;28;20253;-72
2022/09/18 01:31:34;;;;;;;12.47;7.07;;;7.90;99.90;;;;;;5116046;28;20211;-72
2022/09/18 01:34:05;;;;;;;15.80;8.07;;;7.90;99.90;;;;;;5115701;28;20228;-71
2022/09/18 01:36:36;;;;;;;10.47;6.80;;;7.90;99.90;;;;;;5115484;28;20676;-72
2022/09/18 01:39:09;;;;;;;13.47;7.10;;;7.90;99.90;;;;;;5115509;28;20635;-72
2022/09/18 01:41:39;;;;;;;8.67;7.40;;;7.90;99.90;;;;;;5115772;28;20596;-72
2022/09/18 01:44:12;;;;;;;12.03;7.70;;;7.90;99.90;;;;;;5115515;28;20196;-72
2022/09/18 01:46:41;;;;;;;11.67;7.43;;;7.90;99.90;;;;;;5115555;28;20227;-72
2022/09/18 01:49:11;;;;;;;13.43;7.63;;;7.90;99.90;;;;;;5115204;28;20600;-71
2022/09/18 01:51:44;;;;;;;12.40;7.43;;;8.00;99.90;;;;;;5115785;28;20180;-72
2022/09/18 01:54:14;;;;;;;7.70;6.83;;;7.90;99.90;;;;;;5115614;28;20617;-72
2022/09/18 01:56:45;;;;;;;16.43;7.57;;;8.00;99.90;;;;;;5114357;28;20239;-72
2022/09/18 01:59:18;;;;;;;12.30;6.90;;;7.90;99.90;;;;;;5115232;28;20195;-73
2022/09/18 02:01:48;;;;;;;12.73;7.00;;;8.00;99.90;;;;;;5115149;28;20199;-72
2022/09/18 02:04:19;;;;;;;11.07;6.70;;;8.00;99.90;;;;;;5116244;28;20622;-72
2022/09/18 02:07:10;;;;;;;13.10;7.17;;;8.00;99.90;;;;;;5115229;28;20199;-74
2022/09/18 02:09:39;;;;;;;10.77;7.03;;;8.00;99.90;;;;;;5115354;28;20291;-74
2022/09/18 02:12:11;;;;;;;9.57;6.50;;;7.90;99.90;;;;;;5114934;28;20532;-74
2022/09/18 02:14:42;;;;;;;10.77;6.97;;;8.00;99.90;;;;;;5115214;27;20224;-74
2022/09/18 02:17:16;;;;;;;13.20;6.60;;;8.00;99.90;;;;;;5115097;28;20197;-75
2022/09/18 02:19:49;;;;;;;15.03;6.70;;;7.90;99.90;;;;;;5115019;28;20532;-74
2022/09/18 02:22:20;;;;;;;11.50;5.50;;;8.00;99.90;;;;;;5115168;28;20195;-74
2022/09/18 02:24:49;;;;;;;13.80;5.70;;;8.00;99.90;;;;;;5115033;28;20207;-74
2022/09/18 02:27:17;;;;;;;11.23;5.97;;;8.10;99.90;;;;;;5114860;28;20655;-73
2022/09/18 02:29:47;;;;;;;11.47;5.53;;;8.00;99.90;;;;;;5115193;28;20663;-72
2022/09/18 02:32:14;;;;;;;8.97;5.70;;;8.10;99.90;;;;;;5115679;28;20245;-72
2022/09/18 02:34:41;;;;;;;10.77;5.30;;;8.00;99.90;;;;;;5114627;28;20231;-72
2022/09/18 02:37:35;;;;;;;7.83;5.33;;;8.00;99.90;;;;;;5115085;28;20204;-72
2022/09/18 02:40:14;;;;;;;7.63;4.97;;;8.10;99.90;;;;;;5117799;28;20192;-73
2022/09/18 02:42:47;;;;;;;9.43;5.93;;;8.10;99.90;;;;;;5115605;28;20199;-73
2022/09/18 02:45:27;;;;;;;7.57;5.17;;;8.20;99.90;;;;;;5116457;28;20248;-74
2022/09/18 02:48:11;;;;;;;9.80;5.20;;;8.10;99.90;;;;;;5115576;28;20351;-73
2022/09/18 02:50:47;;;;;;;9.97;4.90;;;8.10;99.90;;;;;;5117351;28;20199;-73
2022/09/18 02:53:21;;;;;;;9.50;5.50;;;8.20;99.90;;;;;;5117965;28;20223;-73
2022/09/18 02:55:53;;;;;;;10.30;5.37;;;8.20;99.90;;;;;;5116581;28;20195;-73
2022/09/18 02:58:27;;;;;;;9.50;4.80;;;8.10;99.90;;;;;;5115577;27;20203;-73
2022/09/18 03:00:58;;;;;;;6.63;4.80;;;8.10;99.90;;;;;;5114154;28;20655;-74
2022/09/18 03:03:27;;;;;;;9.43;4.63;;;8.10;99.90;;;;;;5115044;28;20203;-73
2022/09/18 03:05:53;;;;;;;5.63;4.63;;;8.20;99.90;;;;;;5114930;28;20253;-73
2022/09/18 03:08:20;;;;;;;7.27;5.20;;;8.20;99.90;;;;;;5115192;28;20195;-73
2022/09/18 03:10:47;;;;;;;9.77;4.77;;;8.20;99.90;;;;;;5116567;28;20727;-74
2022/09/18 03:13:13;;;;;;;9.80;5.20;;;8.20;99.90;;;;;;5114760;28;20220;-73
2022/09/18 03:15:40;;;;;;;10.00;5.30;;;8.20;99.90;;;;;;5115114;28;20196;-73
2022/09/18 03:18:08;;;;;;;7.90;5.23;;;8.20;99.90;;;;;;5115636;28;20197;-73
2022/09/18 03:20:35;;;;;;;7.03;4.60;;;8.30;99.90;;;;;;5120780;28;20202;-73
2022/09/18 03:23:02;;;;;;;11.57;4.70;;;8.30;99.90;;;;;;5116229;28;20210;-73
2022/09/18 03:25:28;;;;;;;8.30;4.40;;;8.30;99.90;;;;;;5120902;28;20198;-73
2022/09/18 03:27:55;;;;;;;7.13;4.83;;;8.30;99.90;;;;;;5115870;28;20200;-73
2022/09/18 03:30:22;;;;;;;9.27;4.87;;;8.30;99.90;;;;;;5119123;28;20204;-75
2022/09/18 03:32:49;;;;;;;6.87;4.80;;;8.30;99.90;;;;;;5119032;28;20203;-73
2022/09/18 03:35:17;;;;;;;6.30;4.00;;;8.30;99.90;;;;;;5113915;28;20192;-75
2022/09/18 03:37:43;;;;;;;10.87;4.80;;;8.30;99.90;;;;;;5116842;28;20716;-73
2022/09/18 03:40:10;;;;;;;7.73;4.73;;;8.30;99.90;;;;;;5117662;28;20193;-73
2022/09/18 03:42:37;;;;;;;13.13;4.93;;;8.30;99.90;;;;;;5120948;28;20204;-74
2022/09/18 03:45:05;;;;;;;7.60;5.03;;;8.30;99.90;;;;;;5116731;28;20659;-73
2022/09/18 03:47:31;;;;;;;12.10;5.00;;;8.40;99.90;;;;;;5116587;28;20252;-73
2022/09/18 03:49:58;;;;;;;5.33;4.40;;;8.40;99.90;;;;;;5114873;28;20608;-75
2022/09/18 03:52:26;;;;;;;10.00;4.53;;;8.30;99.90;;;;;;5113245;28;20252;-74
2022/09/18 03:54:53;;;;;;;6.57;4.30;;;8.30;99.90;;;;;;5113367;28;20223;-75
2022/09/18 03:57:20;;;;;;;4.73;4.03;;;8.30;99.90;;;;;;5113153;28;20223;-72
2022/09/18 03:59:47;;;;;;;9.10;4.20;;;8.30;99.90;;;;;;5113219;28;20200;-75
2022/09/18 04:02:14;;;;;;;7.83;4.10;;;8.30;99.90;;;;;;5113336;28;20249;-73
2022/09/18 04:04:41;;;;;;;7.40;4.33;;;8.30;99.90;;;;;;5113213;28;20207;-74
2022/09/18 04:07:08;;;;;;;8.50;3.93;;;8.40;99.90;;;;;;5113153;28;20650;-73
2022/09/18 04:09:35;;;;;;;9.07;4.20;;;8.40;99.90;;;;;;5113301;28;20198;-73
2022/09/18 04:12:02;;;;;;;6.70;4.10;;;8.30;99.90;;;;;;5113377;28;20659;-75
2022/09/18 04:14:29;;;;;;;7.30;3.97;;;8.30;99.90;;;;;;5113255;28;20648;-75
2022/09/18 04:16:56;;;;;;;5.43;3.77;;;8.40;99.90;;;;;;5114099;28;20200;-73
2022/09/18 04:19:22;;;;;;;6.33;3.87;;;8.40;99.90;;;;;;5116373;28;20203;-74
2022/09/18 04:21:49;;;;;;;7.47;4.00;;;8.30;99.90;;;;;;5117459;27;20253;-75
2022/09/18 04:24:15;;;;;;;7.20;4.43;;;8.30;99.90;;;;;;5117179;28;20551;-73
2022/09/18 04:26:43;;;;;;;5.90;4.43;;;8.30;99.90;;;;;;5118160;28;20225;-74
2022/09/18 04:29:10;;;;;;;7.67;3.97;;;8.30;99.90;;;;;;5121637;28;20196;-74
2022/09/18 04:31:36;;;;;;;7.40;4.20;;;8.30;99.90;;;;;;5117273;28;20600;-73
2022/09/18 04:34:03;;;;;;;5.53;3.83;;;8.30;99.90;;;;;;5117064;28;20288;-75
2022/09/18 04:36:30;;;;;;;6.63;3.57;;;8.30;99.90;;;;;;5117338;28;20199;-74
2022/09/18 04:38:56;;;;;;;3.90;3.50;;;8.30;99.90;;;;;;5117415;28;20206;-75
2022/09/18 04:41:23;;;;;;;8.80;3.50;;;8.40;99.90;;;;;;5117154;28;20596;-74
2022/09/18 04:43:51;;;;;;;7.50;3.77;;;8.40;99.90;;;;;;5117213;28;20199;-74
2022/09/18 04:46:18;;;;;;;9.87;3.93;;;8.40;99.90;;;;;;5117332;28;20606;-74
2022/09/18 04:48:47;;;;;;;7.87;3.80;;;8.40;99.90;;;;;;5117278;28;20248;-75
2022/09/18 04:51:14;;;;;;;9.00;3.60;;;8.40;99.90;;;;;;5116840;28;20195;-75
2022/09/18 04:53:41;;;;;;;5.47;3.13;;;8.40;99.90;;;;;;5116805;28;20217;-75
2022/09/18 04:56:07;;;;;;;6.90;3.73;;;8.40;99.90;;;;;;5116991;28;20301;-75
2022/09/18 04:58:34;;;;;;;5.13;3.57;;;8.40;99.90;;;;;;5116762;28;20204;-74
2022/09/18 05:01:02;;;;;;;6.20;4.03;;;8.40;99.90;;;;;;5117595;28;20711;-75
2022/09/18 05:03:28;;;;;;;4.37;3.50;;;8.40;99.90;;;;;;5116767;28;20208;-74
2022/09/18 05:05:55;;;;;;;6.10;4.00;;;8.40;99.90;;;;;;5116582;28;20195;-74
2022/09/18 05:08:22;;;;;;;6.30;3.80;;;8.40;99.90;;;;;;5116254;28;20728;-74
2022/09/18 05:10:49;;;;;;;9.47;4.20;;;8.40;99.90;;;;;;5117359;28;20647;-74
2022/09/18 05:13:16;;;;;;;5.83;3.63;;;8.40;99.90;;;;;;5117584;28;20199;-74
2022/09/18 05:15:43;;;;;;;6.23;4.10;;;8.40;99.90;;;;;;5116394;28;20224;-73
2022/09/18 05:18:12;;;;;;;6.17;4.50;;;8.40;99.90;;;;;;5116127;28;20222;-74
2022/09/18 05:20:39;;;;;;;9.53;4.60;;;8.30;99.90;;;;;;5115812;28;20737;-74
2022/09/18 05:23:06;;;;;;;10.47;4.40;;;8.30;99.90;;;;;;5116124;28;20271;-72
2022/09/18 05:25:32;;;;;;;9.33;4.93;;;8.20;99.90;;;;;;5116090;28;20601;-72
2022/09/18 05:28:01;;;;;;;6.60;4.83;;;8.20;99.90;;;;;;5115757;28;20195;-72
2022/09/18 05:30:29;;;;;;;6.73;4.50;;;8.20;99.90;;;;;;5116696;28;20200;-72
2022/09/18 05:32:57;;;;;;;6.80;4.87;;;8.10;99.90;;;;;;5116130;28;20320;-72
2022/09/18 05:35:27;;;;;;;9.87;4.97;;;8.10;99.90;;;;;;5115726;28;20281;-73
2022/09/18 05:37:55;;;;;;;9.57;5.17;;;8.10;99.90;;;;;;5115777;28;20256;-72
2022/09/18 05:40:23;;;;;;;8.30;5.20;;;8.20;99.90;;;;;;5115929;28;20192;-72
2022/09/18 05:42:51;;;;;;;6.93;4.93;;;8.20;99.90;;;;;;5116128;28;20195;-73
2022/09/18 05:45:18;;;;;;;11.17;5.50;;;8.20;99.90;;;;;;5115678;28;20196;-73
2022/09/18 05:47:53;;;;;;;7.00;5.30;;;8.20;99.90;;;;;;5115512;28;20201;-72
2022/09/18 05:50:20;;;;;;;7.90;5.00;;;8.20;99.90;;;;;;5115463;28;20252;-73
2022/09/18 05:52:48;;;;;;;8.37;5.47;;;8.20;99.90;;;;;;5115307;28;20195;-72
2022/09/18 05:55:14;;;;;;;8.33;5.87;;;8.20;99.90;;;;;;5115062;28;20219;-73
2022/09/18 05:57:41;;;;;;;11.73;5.70;;;8.20;99.90;;;;;;5115135;28;20281;-73
2022/09/18 06:00:09;;;;;;;5.93;5.27;;;8.20;99.90;;;;;;5115115;28;20203;-73
2022/09/18 06:02:36;;;;;;;11.60;6.40;;;8.20;99.90;;;;;;5115306;28;20200;-73
2022/09/18 06:05:03;;;;;;;8.33;6.43;;;8.20;99.90;;;;;;5115155;28;20714;-74
2022/09/18 06:07:30;;;;;;;10.00;5.73;;;8.20;99.90;;;;;;5114989;28;20220;-73
2022/09/18 06:09:58;;;;;;;9.23;6.30;;;8.20;99.90;;;;;;5114957;27;20199;-74
2022/09/18 06:12:25;;;;;;;8.40;6.53;;;8.10;99.90;;;;;;5115138;28;20200;-73
2022/09/18 06:14:52;;;;;;;10.43;6.97;;;8.10;99.90;;;;;;5114908;28;20225;-73
2022/09/18 06:17:19;;;;;;;9.47;6.07;;;8.20;99.90;;;;;;5114865;28;20606;-73
2022/09/18 06:19:46;;;;;;;8.50;6.17;;;8.20;99.90;;;;;;5114804;28;20192;-73
2022/09/18 06:22:12;;;;;;;11.07;6.87;;;8.20;99.90;;;;;;5114672;28;20280;-73
2022/09/18 06:24:39;;;;;;;11.13;6.83;;;8.20;99.90;;;;;;5114576;28;20622;-73
2022/09/18 06:27:07;;;;;;;10.93;6.63;;;8.20;99.90;;;;;;5114794;28;20192;-73
2022/09/18 06:29:33;;;;;;;11.10;7.73;;;8.20;99.90;;;;;;5114577;28;20199;-74
2022/09/18 06:32:00;;;;;;;7.93;6.20;;;8.20;99.90;;;;;;5114674;28;20243;-74
2022/09/18 06:34:27;;;;;;;10.10;6.93;;;8.20;99.90;;;;;;5114399;28;20216;-74
2022/09/18 06:36:53;;;;;;;9.23;7.43;;;8.20;99.90;;;;;;5114322;28;20654;-73
2022/09/18 06:39:20;;;;;;;9.17;7.03;;;8.20;99.90;;;;;;5114497;28;20245;-73
2022/09/18 06:41:48;;;;;;;8.13;6.97;;;8.20;99.90;;;;;;5113780;28;20585;-75
2022/09/18 06:44:16;;;;;;;7.83;6.93;;;8.30;99.90;;;;;;5114329;28;20548;-74
2022/09/18 06:46:43;;;;;;;9.63;6.67;;;8.30;99.90;;;;;;5114236;28;20245;-74
2022/09/18 06:49:09;;;;;;;7.73;7.00;;;8.30;99.90;;;;;;5114144;28;20196;-73
2022/09/18 06:51:36;;;;;;;8.13;6.80;;;8.30;99.90;;;;;;5114004;28;20221;-73
2022/09/18 06:54:02;;;;;;;7.33;6.60;;;8.30;99.90;;;;;;5114180;28;20200;-72
2022/09/18 06:56:29;;;;;;;11.87;6.67;;;8.40;99.90;;;;;;5114027;28;20232;-74
2022/09/18 06:58:56;;;;;;;6.90;6.30;;;8.30;99.90;;;;;;5114059;28;20202;-72
2022/09/18 07:01:24;;;;;;;9.03;6.20;;;8.30;99.90;;;;;;5114060;28;20225;-72
2022/09/18 07:03:51;;;;;;;9.37;6.00;;;8.30;99.90;;;;;;5113775;28;20216;-72
2022/09/18 07:06:17;;;;;;;8.30;6.97;;;8.40;99.90;;;;;;5114055;28;20566;-74
2022/09/18 07:08:44;;;;;;;10.20;6.37;;;8.40;99.90;;;;;;5114079;28;20200;-74
2022/09/18 07:11:11;;;;;;;7.90;6.57;;;8.50;99.90;;;;;;5113859;28;20195;-73
2022/09/18 07:13:37;;;;;;;8.50;6.10;;;8.50;99.90;;;;;;5113876;28;20252;-74
2022/09/18 07:16:04;;;;;;;8.97;4.93;;;8.50;99.90;;;;;;5113798;28;20590;-74
2022/09/18 07:18:32;;;;;;;6.20;5.27;;;8.50;99.90;;;;;;5113661;28;20201;-74
2022/09/18 07:21:00;;;;;;;6.30;5.30;;;8.50;99.90;;;;;;5114015;28;20220;-74
2022/09/18 07:23:28;;;;;;;6.07;5.20;;;8.50;99.90;;;;;;5113754;28;20196;-74
2022/09/18 07:25:55;;;;;;;6.57;4.87;;;8.50;99.90;;;;;;5113546;28;20212;-76
2022/09/18 07:28:22;;;;;;;9.40;5.23;;;8.50;99.90;;;;;;5111011;28;20233;-72
2022/09/18 07:30:48;;;;;;;5.50;5.00;;;8.50;99.90;;;;;;5111805;28;20209;-75
2022/09/18 07:33:15;;;;;;;9.00;5.10;;;8.50;99.90;;;;;;5111501;28;20204;-77
2022/09/18 07:35:43;;;;;;;5.03;4.63;;;8.50;99.90;;;;;;5110834;28;20292;-74
2022/09/18 07:38:10;;;;;;;7.73;5.73;;;8.50;99.90;;;;;;5110519;28;20611;-72
2022/09/18 07:40:38;;;;;;;7.00;5.10;;;8.60;99.90;;;;;;5109371;28;20206;-73
2022/09/18 07:43:08;;;;;;;5.33;4.63;;;8.60;99.90;;;;;;5110766;28;20594;-72
2022/09/18 07:45:35;;;;;;;5.97;5.33;;;8.60;99.90;;;;;;5110490;28;20732;-72
2022/09/18 07:48:04;;;;;;;4.87;4.37;;;8.60;99.90;;;;;;5110781;28;20199;-72
2022/09/18 07:50:31;;;;;;;7.10;4.93;;;8.70;99.90;;;;;;5110672;28;20201;-72
2022/09/18 07:53:02;;;;;;;6.53;4.70;;;8.70;99.90;;;;;;5110436;28;20606;-73
2022/09/18 07:55:29;;;;;;;6.13;4.80;;;8.70;99.90;;;;;;5114782;28;20292;-73
2022/09/18 07:57:57;;;;;;;6.60;4.60;;;8.70;99.90;;;;;;5114674;28;20785;-72
2022/09/18 08:00:24;;;;;;;6.20;5.20;;;8.70;99.90;;;;;;5115064;28;20199;-73
2022/09/18 08:02:51;;;;;;;6.63;5.10;;;8.80;99.90;;;;;;5110394;28;20286;-74
2022/09/18 08:05:17;;;;;;;5.43;4.30;;;8.80;99.90;;;;;;5113969;28;20257;-74
2022/09/18 08:07:44;;;;;;;6.30;4.40;;;8.80;99.90;;;;;;5114662;28;20199;-74
2022/09/18 08:10:12;;;;;;;7.60;4.50;;;8.80;99.90;;;;;;5114361;28;20203;-74
2022/09/18 08:12:39;;;;;;;6.73;4.60;;;8.90;99.90;;;;;;5114360;28;20203;-74
2022/09/18 08:15:06;;;;;;;6.93;4.30;;;8.90;99.90;;;;;;5114287;28;20226;-74
2022/09/18 08:17:33;;;;;;;6.00;4.23;;;9.00;99.90;;;;;;5114602;28;20203;-74
2022/09/18 08:19:59;;;;;;;4.80;4.10;;;9.00;99.90;;;;;;5114224;28;20484;-73
2022/09/18 08:22:26;;;;;;;7.20;4.23;;;9.10;99.90;;;;;;5114398;28;20199;-72
2022/09/18 08:24:53;;;;;;;5.23;4.27;;;9.10;99.90;;;;;;5114318;28;20207;-72
2022/09/18 08:27:21;;;;;;;6.10;4.33;;;9.20;99.90;;;;;;5114216;28;20201;-73
2022/09/18 08:29:47;;;;;;;6.70;4.50;;;9.20;99.90;;;;;;5116969;28;20196;-73
2022/09/18 08:32:14;;;;;;;7.00;4.17;;;9.30;99.90;;;;;;5110577;28;20295;-74
2022/09/18 08:34:41;;;;;;;6.63;4.00;;;9.50;99.90;;;;;;5096189;28;20276;-74
2022/09/18 08:37:08;;;;;;;6.40;3.90;;;9.50;99.90;;;;;;5096208;28;20200;-73
2022/09/18 08:39:34;;;;;;;5.40;3.87;;;9.60;99.90;;;;;;5095941;28;20200;-73
2022/09/18 08:42:14;;;;;;;4.60;4.20;;;9.60;99.90;;;;;;5096190;28;20234;-72
2022/09/18 08:44:48;;;;;;;4.13;3.73;;;9.60;99.90;;;;;;5096145;28;20237;-73
2022/09/18 08:47:19;;;;;;;6.80;3.90;;;9.70;99.90;;;;;;5096016;28;20601;-72
2022/09/18 08:49:50;;;;;;;4.80;4.10;;;9.80;99.90;;;;;;5096329;28;20269;-73
2022/09/18 08:52:19;;;;;;;5.67;4.20;;;9.70;99.90;;;;;;5096468;28;20258;-73
2022/09/18 08:54:50;;;;;;;4.93;4.00;;;9.80;99.90;;;;;;5095734;28;20202;-72
2022/09/18 08:57:21;;;;;;;4.83;4.03;;;9.80;99.90;;;;;;5101572;28;20272;-73
2022/09/18 08:59:52;;;;;;;5.50;4.93;;;9.90;99.90;;;;;;5116098;28;20200;-72
2022/09/18 09:02:29;;;;;;;4.17;3.77;;;9.90;99.90;;;;;;5115922;28;20225;-73
2022/09/18 09:05:02;;;;;;;5.27;3.77;;;9.80;99.90;;;;;;5115660;28;20585;-72
2022/09/18 09:07:50;;;;;;;5.07;3.90;;;9.70;99.90;;;;;;5115289;28;20697;-72
2022/09/18 09:10:37;;;;;;;8.90;4.47;;;9.80;99.90;;;;;;5112558;28;20196;-73
2022/09/18 09:13:31;;;;;;;6.10;3.87;;;9.90;99.90;;;;;;5115860;28;20217;-72
2022/09/18 09:16:04;;;;;;;5.53;3.63;;;10.10;99.90;;;;;;5115952;28;20226;-72
2022/09/18 09:18:38;;;;;;;8.37;4.70;;;10.10;99.90;;;;;;5115798;28;20655;-72
2022/09/18 09:21:17;;;;;;;5.10;3.90;;;10.20;99.90;;;;;;5115813;28;20200;-72
2022/09/18 09:23:59;;;;;;;4.57;3.47;;;10.20;99.90;;;;;;5116000;28;20606;-72
2022/09/18 09:26:26;;;;;;;5.73;3.33;;;10.50;99.90;;;;;;5115649;28;20654;-71
2022/09/18 09:28:59;;;;;;;3.70;3.30;;;10.50;99.90;;;;;;5115747;27;20204;-71
2022/09/18 09:31:34;;;;;;;7.13;3.80;;;10.60;99.90;;;;;;5115529;28;20199;-72
2022/09/18 09:34:03;;;;;;;6.50;3.90;;;10.70;99.90;;;;;;5115460;28;20256;-71
2022/09/18 09:36:33;;;;;;;3.80;3.40;;;10.70;99.90;;;;;;5115828;28;20284;-71
2022/09/18 09:39:05;;;;;;;5.13;4.30;;;10.90;99.90;;;;;;5115751;28;20195;-71
2022/09/18 09:41:38;;;;;;;5.47;4.27;;;10.60;99.90;;;;;;5115430;28;20673;-72
2022/09/18 09:44:37;;;;;;;4.13;3.73;;;10.40;99.90;;;;;;5115471;28;20204;-73
2022/09/18 09:47:16;;;;;;;8.53;4.63;;;10.30;99.90;;;;;;5115202;28;20662;-72
2022/09/18 09:49:53;;;;;;;4.47;4.07;;;10.40;99.90;;;;;;5115219;28;20196;-74
2022/09/18 09:52:24;;;;;;;4.00;3.70;;;10.40;99.90;;;;;;5115102;28;20204;-74
2022/09/18 09:54:55;;;;;;;4.53;4.10;;;10.30;99.90;;;;;;5114998;28;20231;-75
2022/09/18 09:57:26;;;;;;;7.10;5.40;;;10.30;99.90;;;;;;5114871;28;20227;-74
2022/09/18 10:00:01;;;;;;;5.87;3.83;;;10.20;99.90;;;;;;5115083;28;20195;-74
2022/09/18 10:02:48;;;;;;;6.53;3.83;;;10.20;99.90;;;;;;5114981;28;20242;-74
2022/09/18 10:05:23;;;;;;;8.37;6.40;;;10.10;99.90;;;;;;5114816;28;20202;-74
2022/09/18 10:07:56;;;;;;;5.13;4.13;;;10.30;99.90;;;;;;5115065;28;20194;-74
2022/09/18 10:10:30;;;;;;;7.23;5.70;;;10.20;99.90;;;;;;5114784;28;20720;-74
2022/09/18 10:13:01;;;;;;;9.87;8.20;;;10.20;99.90;;;;;;5114891;28;20252;-73
2022/09/18 10:15:34;;;;;;;7.10;5.17;;;10.10;99.90;;;;;;5115506;28;20399;-74
2022/09/18 10:18:05;;;;;;;8.27;6.43;;;10.00;99.90;;;;;;5115765;28;20231;-73
2022/09/18 10:20:33;;;;;;;6.87;5.10;;;10.10;99.90;;;;;;5114781;28;20223;-73
2022/09/18 10:23:04;;;;;;;5.60;4.87;;;10.20;99.90;;;;;;5112905;28;20211;-71
2022/09/18 10:25:39;;;;;;;4.83;4.13;;;10.10;99.90;;;;;;5111844;28;20199;-71
2022/09/18 10:28:05;;;;;;;6.53;4.27;;;10.10;99.90;;;;;;5111629;28;20191;-71
2022/09/18 10:30:32;;;;;;;5.03;3.93;;;10.00;99.90;;;;;;5111938;28;20211;-72
2022/09/18 10:32:59;;;;;;;8.00;7.20;;;10.00;99.90;;;;;;5111598;28;20210;-73
2022/09/18 10:35:41;;;;;;;8.63;7.70;;;10.00;99.90;;;;;;5111360;28;20227;-73
2022/09/18 10:38:29;;;;;;;4.80;4.40;;;10.20;99.90;;;;;;5111623;28;20195;-73
2022/09/18 10:40:56;;;;;;;3.80;3.50;;;10.40;99.90;;;;;;5111468;28;20637;-72
2022/09/18 10:43:23;;;;;;;7.37;3.97;;;10.30;99.90;;;;;;5111863;28;20206;-73
2022/09/18 10:45:52;;;;;;;4.87;4.47;;;10.40;99.90;;;;;;5111425;28;20613;-72
2022/09/18 10:48:22;;;;;;;3.77;3.30;;;10.40;99.90;;;;;;5111269;28;20603;-73
2022/09/18 10:50:54;;;;;;;5.23;3.50;;;10.50;99.90;;;;;;5111675;28;20203;-73
2022/09/18 10:53:28;;;;;;;9.87;5.70;;;10.60;99.90;;;;;;5111522;28;20208;-74
2022/09/18 10:55:56;;;;;;;8.00;5.00;;;10.70;99.90;;;;;;5111347;28;20221;-72
2022/09/18 10:58:31;;;;;;;5.17;4.50;;;11.00;99.90;;;;;;5111205;28;20206;-73
2022/09/18 11:01:01;;;;;;;4.77;4.23;;;11.00;99.90;;;;;;5111309;28;20206;-77
2022/09/18 11:03:40;;;;;;;7.03;6.00;;;10.80;99.90;;;;;;5114187;28;20539;-74
2022/09/18 11:06:15;;;;;;;5.97;3.57;;;10.70;99.90;;;;;;5112640;28;20202;-75
2022/09/18 11:08:45;;;;;;;5.27;3.00;;;10.70;99.90;;;;;;5114911;28;20202;-73
2022/09/18 11:11:14;;;;;;;3.90;2.80;;;10.50;99.90;;;;;;5114360;28;20200;-76
2022/09/18 11:13:48;;;;;;;4.87;2.93;;;10.60;99.90;;;;;;5114112;28;20200;-74
2022/09/18 11:16:22;;;;;;;3.73;2.80;;;11.00;99.90;;;;;;5119876;28;20244;-75
2022/09/18 11:19:01;;;;;;;5.87;3.50;;;11.00;99.90;;;;;;5113728;28;20214;-76
2022/09/18 11:21:29;;;;;;;2.73;2.50;;;11.20;99.90;;;;;;5113815;28;20260;-75
2022/09/18 11:24:11;;;;;;;3.80;3.10;;;11.10;99.90;;;;;;5113528;28;20651;-76
2022/09/18 11:26:38;;;;;;;5.67;3.13;;;11.20;99.90;;;;;;5113329;28;20607;-76
2022/09/18 11:29:06;;;;;;;2.80;2.30;;;11.20;99.90;;;;;;5113232;28;20241;-75
2022/09/18 11:31:42;;;;;;;3.33;2.40;;;11.10;99.90;;;;;;5113567;28;20202;-73
2022/09/18 11:34:24;;;;;;;3.70;2.50;;;11.20;99.90;;;;;;5113564;28;20200;-75
2022/09/18 11:36:55;;;;;;;3.43;2.47;;;11.10;99.90;;;;;;5113120;28;20219;-76
2022/09/18 11:39:26;;;;;;;3.97;2.53;;;11.10;99.90;;;;;;5113476;28;20200;-73
2022/09/18 11:41:54;;;;;;;4.13;2.63;;;11.30;99.90;;;;;;5113360;28;20207;-76
2022/09/18 11:44:26;;;;;;;3.13;2.27;;;11.20;99.90;;;;;;5113237;28;20192;-74
2022/09/18 11:47:19;;;;;;;4.33;2.50;;;11.40;99.90;;;;;;5113167;28;20650;-76
2022/09/18 11:49:49;;;;;;;4.17;2.47;;;11.30;99.90;;;;;;5113292;28;20234;-74
2022/09/18 11:52:22;;;;;;;4.17;2.70;;;11.50;99.90;;;;;;5113344;28;20220;-74
2022/09/18 11:54:52;;;;;;;3.90;2.43;;;11.30;99.90;;;;;;5113140;28;20203;-75
2022/09/18 11:57:22;;;;;;;3.37;2.30;;;11.30;99.90;;;;;;5112880;28;20227;-75
2022/09/18 11:59:55;;;;;;;4.40;2.20;;;11.60;99.90;;;;;;5112963;28;20241;-74
2022/09/18 12:02:30;;;;;;;6.43;2.73;;;11.50;99.90;;;;;;5113193;28;20208;-74
2022/09/18 12:05:05;;;;;;;5.40;4.67;;;11.40;99.90;;;;;;5112779;28;20228;-74
2022/09/18 12:07:37;;;;;;;6.33;4.03;;;11.60;99.90;;;;;;5113009;28;20198;-74
2022/09/18 12:10:12;;;;;;;4.83;3.63;;;11.60;99.90;;;;;;5112849;28;20192;-74
2022/09/18 12:12:44;;;;;;;4.97;3.50;;;11.40;99.90;;;;;;5113139;28;20600;-75
2022/09/18 12:15:16;;;;;;;4.87;3.00;;;11.30;99.90;;;;;;5112992;28;20205;-75
2022/09/18 12:17:48;;;;;;;6.70;4.17;;;11.30;99.90;;;;;;5112759;28;20219;-76
2022/09/18 12:20:25;;;;;;;7.00;4.13;;;11.20;99.90;;;;;;5112772;28;20196;-75
2022/09/18 12:22:55;;;;;;;3.00;2.70;;;11.30;99.90;;;;;;5112844;28;20184;-76
2022/09/18 12:25:29;;;;;;;6.63;4.10;;;11.50;99.90;;;;;;5112942;28;20235;-76
2022/09/18 12:28:02;;;;;;;5.10;2.70;;;11.80;99.90;;;;;;5112653;28;20684;-74
2022/09/18 12:30:37;;;;;;;6.77;2.17;;;12.00;99.90;;;;;;5112662;28;20258;-76
2022/09/18 12:33:17;;;;;;;5.77;2.30;;;11.90;99.90;;;;;;5112393;28;20218;-75
2022/09/18 12:35:56;;;;;;;3.60;2.27;;;11.80;99.90;;;;;;5112858;28;20195;-74
2022/09/18 12:38:43;;;;;;;4.73;2.27;;;11.70;99.90;;;;;;5112724;28;20200;-75
2022/09/18 12:41:27;;;;;;;4.23;2.63;;;11.80;99.90;;;;;;5115652;28;20199;-75
2022/09/18 12:44:15;;;;;;;3.27;2.40;;;11.80;99.90;;;;;;5116387;28;20957;-75
2022/09/18 12:46:56;;;;;;;4.50;2.37;;;11.90;99.90;;;;;;5116299;28;20199;-75
2022/09/18 12:49:43;;;;;;;4.60;2.37;;;11.60;99.90;;;;;;5116256;28;20241;-75
2022/09/18 12:52:23;;;;;;;3.73;2.40;;;11.60;99.90;;;;;;5116383;28;20195;-75
2022/09/18 12:55:06;;;;;;;5.03;2.40;;;11.60;99.90;;;;;;5116143;28;20679;-75
2022/09/18 12:57:44;;;;;;;4.47;2.10;;;11.70;99.90;;;;;;5115869;28;20748;-75
2022/09/18 13:00:13;;;;;;;2.53;2.23;;;11.70;99.90;;;;;;5116028;28;20200;-76
2022/09/18 13:02:50;;;;;;;3.23;2.00;;;11.80;99.90;;;;;;5116227;28;20196;-75
2022/09/18 13:05:21;;;;;;;6.80;2.40;;;12.00;99.90;;;;;;5116184;28;20694;-75
2022/09/18 13:07:52;;;;;;;3.47;2.10;;;12.20;99.90;;;;;;5115999;28;20249;-75
2022/09/18 13:10:25;;;;;;;4.27;1.87;;;12.40;99.90;;;;;;5115794;28;20589;-76